Pagrindinis puslapis
METAR-TAF:

METAR-TAF

Oro uostai :

Kirkenesas, Norvegija

platuma: 69-44N, ilguma: 029-54E, Aukštis: 9 m

Dabartinis oras

Ataskaita buvo paskelbta 55 minutes, ne 23:20 UTC
Vėjas 9 kt iš Pietų
Temperatūra 19°C
Drėgmė 78%
Slėgis 1011 hPa
Matomumas 10 km arba daugiau

METAR: ENKR 022320Z AUTO 17009KT 9999 NCD 19/15 Q1011 RMK WIND 731FT 20019KT

Laikas: 02:15 (00:15 UTC)

Prognozė

Ataskaita buvo paskelbta 4 valandos ir 15 minutes, ne 20:00 UTC
Prognozė galioja nuo 02 metu 21 UTC su 03 metu 06 UTC
Vėjas 8 kt iš Pietų
Matomumas 10 km arba daugiau
Mažai debesys ne aukštis 8000 ft
Laikinai
nuo 02 metu 21 UTC su 03 metu 04 UTC
Mažai debesys ne aukštis 3500 ft, Liūtiniai kamuoliniai debesys.
Tikimybė 30%
nuo 02 metu 21 UTC su 03 metu 04 UTC
perkūnija, lietus

TAF: ENKR 022000Z 0221/0306 19008KT 9999 FEW080 TEMPO 0221/0304 FEW035CB PROB30 0221/0304 TSRA

Orai ataskaitas ir orų prognozės (METAR, TAF).

turimą stotys yra geltonos ir raudonos taškus žemėlapyje.

Perkelti pele per norėdami pamatyti stoties vardą.

Tada spustelėkite, norėdami matyti oro stebėjimo ir prognozės.

Norėdami pakeisti žemėlapį: spustelėkite ant žalios mygtukų su juodo kryžiaus žemyn,; žalią mygtuką su brūkšneliu, jei norite nutolinti; arba žalių rodyklių gretimoms žemėlapius.


METAR-TAF: